sensor_id;sensor_type;location;lat;lon;timestamp;pressure;altitude;pressure_sealevel;temperature;humidity
62333;BME280;48624;49.812;8.562;2023-04-01T00:01:02;98976.50;;;9.93;84.02
62333;BME280;48624;49.812;8.562;2023-04-01T00:03:29;98976.09;;;9.98;82.85
62333;BME280;48624;49.812;8.562;2023-04-01T00:05:55;98967.34;;;10.07;83.17
62333;BME280;48624;49.812;8.562;2023-04-01T00:08:21;98974.28;;;9.89;83.32
62333;BME280;48624;49.812;8.562;2023-04-01T00:10:47;98963.97;;;9.95;82.87
62333;BME280;48624;49.812;8.562;2023-04-01T00:13:12;98976.72;;;9.70;84.38
62333;BME280;48624;49.812;8.562;2023-04-01T00:15:38;98974.25;;;9.79;83.62
62333;BME280;48624;49.812;8.562;2023-04-01T00:18:03;98966.31;;;9.69;83.77
62333;BME280;48624;49.812;8.562;2023-04-01T00:20:29;98961.75;;;9.91;83.46
62333;BME280;48624;49.812;8.562;2023-04-01T00:22:55;98964.81;;;9.86;82.73
62333;BME280;48624;49.812;8.562;2023-04-01T00:25:21;98963.34;;;9.62;84.29
62333;BME280;48624;49.812;8.562;2023-04-01T00:27:46;98962.19;;;9.96;82.88
62333;BME280;48624;49.812;8.562;2023-04-01T00:30:12;98964.06;;;9.64;83.47
62333;BME280;48624;49.812;8.562;2023-04-01T00:32:37;98963.81;;;9.87;83.76
62333;BME280;48624;49.812;8.562;2023-04-01T00:35:03;98967.97;;;9.70;83.81
62333;BME280;48624;49.812;8.562;2023-04-01T00:37:29;98959.75;;;9.63;83.29
62333;BME280;48624;49.812;8.562;2023-04-01T00:39:55;98955.78;;;10.08;82.35
62333;BME280;48624;49.812;8.562;2023-04-01T00:42:20;98962.56;;;9.81;83.21
62333;BME280;48624;49.812;8.562;2023-04-01T00:44:51;98951.41;;;9.78;83.10
62333;BME280;48624;49.812;8.562;2023-04-01T00:47:18;98959.78;;;9.83;83.43
62333;BME280;48624;49.812;8.562;2023-04-01T00:49:46;98960.03;;;9.80;83.62
62333;BME280;48624;49.812;8.562;2023-04-01T00:52:14;98956.13;;;9.74;83.86
62333;BME280;48624;49.812;8.562;2023-04-01T00:54:43;98951.94;;;9.71;82.56
62333;BME280;48624;49.812;8.562;2023-04-01T00:57:23;98956.13;;;9.74;82.84
62333;BME280;48624;49.812;8.562;2023-04-01T00:59:50;98958.50;;;9.67;83.79
62333;BME280;48624;49.812;8.562;2023-04-01T01:02:18;98941.53;;;9.80;83.33
62333;BME280;48624;49.812;8.562;2023-04-01T01:04:45;98960.06;;;9.90;83.42
62333;BME280;48624;49.812;8.562;2023-04-01T01:12:46;98958.63;;;9.66;84.01
62333;BME280;48624;49.812;8.562;2023-04-01T01:15:19;98946.13;;;9.68;84.19
62333;BME280;48624;49.812;8.562;2023-04-01T01:18:09;98940.44;;;9.73;82.89
62333;BME280;48624;49.812;8.562;2023-04-01T01:32:20;98930.84;;;10.01;82.29
62333;BME280;48624;49.812;8.562;2023-04-01T01:34:34;98931.25;;;9.96;82.88
62333;BME280;48624;49.812;8.562;2023-04-01T01:37:05;98929.84;;;9.82;82.79
62333;BME280;48624;49.812;8.562;2023-04-01T01:39:33;98926.38;;;9.82;82.05
62333;BME280;48624;49.812;8.562;2023-04-01T01:42:04;98925.16;;;9.96;81.62
62333;BME280;48624;49.812;8.562;2023-04-01T01:44:30;98927.19;;;9.82;82.93
62333;BME280;48624;49.812;8.562;2023-04-01T01:46:57;98920.53;;;9.88;82.28
62333;BME280;48624;49.812;8.562;2023-04-01T01:49:23;98916.63;;;10.02;81.43
62333;BME280;48624;49.812;8.562;2023-04-01T01:51:50;98907.47;;;9.87;82.15
62333;BME280;48624;49.812;8.562;2023-04-01T01:54:17;98907.56;;;9.95;82.13
62333;BME280;48624;49.812;8.562;2023-04-01T01:56:45;98914.69;;;10.04;81.35
62333;BME280;48624;49.812;8.562;2023-04-01T01:59:14;98911.03;;;9.85;82.12
62333;BME280;48624;49.812;8.562;2023-04-01T02:01:47;98905.63;;;9.87;81.86
62333;BME280;48624;49.812;8.562;2023-04-01T02:04:14;98916.47;;;9.64;82.98
62333;BME280;48624;49.812;8.562;2023-04-01T02:06:50;98908.38;;;9.66;82.31
62333;BME280;48624;49.812;8.562;2023-04-01T02:09:19;98920.13;;;10.03;81.26
62333;BME280;48624;49.812;8.562;2023-04-01T02:11:52;98918.13;;;9.75;81.88
62333;BME280;48624;49.812;8.562;2023-04-01T02:14:26;98910.75;;;9.59;83.03
62333;BME280;48624;49.812;8.562;2023-04-01T02:17:09;98921.63;;;9.85;82.93
62333;BME280;48624;49.812;8.562;2023-04-01T02:20:15;98918.13;;;9.75;83.08
62333;BME280;48624;49.812;8.562;2023-04-01T02:22:38;98917.97;;;9.67;84.28
62333;BME280;48624;49.812;8.562;2023-04-01T02:25:10;98908.69;;;9.73;83.65
62333;BME280;48624;49.812;8.562;2023-04-01T02:27:37;98919.00;;;10.15;81.87
62333;BME280;48624;49.812;8.562;2023-04-01T02:30:03;98916.22;;;9.97;82.69
62333;BME280;48624;49.812;8.562;2023-04-01T02:32:29;98895.19;;;9.76;82.74
62333;BME280;48624;49.812;8.562;2023-04-01T02:34:56;98900.06;;;9.90;82.64
62333;BME280;48624;49.812;8.562;2023-04-01T02:37:21;98910.78;;;9.69;84.22
62333;BME280;48624;49.812;8.562;2023-04-01T02:39:47;98914.94;;;9.71;84.25
62333;BME280;48624;49.812;8.562;2023-04-01T02:42:13;98917.75;;;9.90;83.29
62333;BME280;48624;49.812;8.562;2023-04-01T02:44:38;98921.34;;;9.69;83.99
62333;BME280;48624;49.812;8.562;2023-04-01T02:47:04;98921.34;;;9.69;84.25
62333;BME280;48624;49.812;8.562;2023-04-01T02:49:29;98924.56;;;9.82;83.53
62333;BME280;48624;49.812;8.562;2023-04-01T02:51:55;98912.16;;;9.73;84.32
62333;BME280;48624;49.812;8.562;2023-04-01T02:54:20;98907.72;;;9.74;83.90
62333;BME280;48624;49.812;8.562;2023-04-01T02:56:45;98917.31;;;9.75;83.20
62333;BME280;48624;49.812;8.562;2023-04-01T02:59:11;98911.59;;;9.60;84.36
62333;BME280;48624;49.812;8.562;2023-04-01T03:01:36;98914.06;;;9.61;83.81
62333;BME280;48624;49.812;8.562;2023-04-01T03:04:01;98918.38;;;9.52;83.84
62333;BME280;48624;49.812;8.562;2023-04-01T03:06:27;98916.03;;;9.59;83.77
62333;BME280;48624;49.812;8.562;2023-04-01T03:08:52;98910.03;;;9.67;83.47
62333;BME280;48624;49.812;8.562;2023-04-01T03:11:17;98927.03;;;9.64;83.53
62333;BME280;48624;49.812;8.562;2023-04-01T03:13:43;98907.41;;;9.67;83.56
62333;BME280;48624;49.812;8.562;2023-04-01T03:16:08;98922.13;;;9.50;84.40
62333;BME280;48624;49.812;8.562;2023-04-01T03:18:33;98914.44;;;9.37;85.66
62333;BME280;48624;49.812;8.562;2023-04-01T03:21:13;98929.38;;;9.48;85.37
62333;BME280;48624;49.812;8.562;2023-04-01T03:23:38;98933.50;;;9.30;86.13
62333;BME280;48624;49.812;8.562;2023-04-01T03:26:03;98926.56;;;9.39;86.52
62333;BME280;48624;49.812;8.562;2023-04-01T03:28:29;98928.69;;;9.55;85.47
62333;BME280;48624;49.812;8.562;2023-04-01T03:30:54;98926.31;;;9.62;85.42
62333;BME280;48624;49.812;8.562;2023-04-01T03:33:19;98931.03;;;9.49;85.72
62333;BME280;48624;49.812;8.562;2023-04-01T03:35:45;98929.09;;;9.51;86.04
62333;BME280;48624;49.812;8.562;2023-04-01T03:38:10;98929.94;;;9.61;84.52
62333;BME280;48624;49.812;8.562;2023-04-01T03:40:35;98924.78;;;9.50;85.93
62333;BME280;48624;49.812;8.562;2023-04-01T03:43:03;98929.59;;;9.35;86.41
62333;BME280;48624;49.812;8.562;2023-04-01T03:45:31;98933.09;;;9.35;86.72
62333;BME280;48624;49.812;8.562;2023-04-01T03:47:57;98930.69;;;9.22;86.89
62333;BME280;48624;49.812;8.562;2023-04-01T03:50:22;98935.50;;;9.17;87.24
62333;BME280;48624;49.812;8.562;2023-04-01T03:52:47;98934.31;;;9.31;86.88
62333;BME280;48624;49.812;8.562;2023-04-01T03:55:13;98928.91;;;9.33;86.83
62333;BME280;48624;49.812;8.562;2023-04-01T03:57:38;98930.47;;;9.45;86.39
62333;BME280;48624;49.812;8.562;2023-04-01T04:00:04;98922.69;;;9.53;86.13
62333;BME280;48624;49.812;8.562;2023-04-01T04:02:29;98922.84;;;9.62;85.52
62333;BME280;48624;49.812;8.562;2023-04-01T04:04:54;98925.88;;;9.47;86.12
62333;BME280;48624;49.812;8.562;2023-04-01T04:07:20;98933.75;;;9.27;86.21
62333;BME280;48624;49.812;8.562;2023-04-01T04:09:45;98918.66;;;9.49;84.75
62333;BME280;48624;49.812;8.562;2023-04-01T04:12:10;98926.25;;;9.33;86.48
62333;BME280;48624;49.812;8.562;2023-04-01T04:14:36;98914.94;;;9.62;85.24
62333;BME280;48624;49.812;8.562;2023-04-01T04:17:01;98917.53;;;9.42;85.48
62333;BME280;48624;49.812;8.562;2023-04-01T04:19:32;98919.94;;;9.55;84.70
62333;BME280;48624;49.812;8.562;2023-04-01T04:21:58;98926.22;;;9.74;83.57
62333;BME280;48624;49.812;8.562;2023-04-01T04:24:26;98919.94;;;9.55;84.32
62333;BME280;48624;49.812;8.562;2023-04-01T04:26:52;98914.09;;;9.71;83.26
62333;BME280;48624;49.812;8.562;2023-04-01T04:29:17;98911.47;;;9.71;83.26
62333;BME280;48624;49.812;8.562;2023-04-01T04:31:44;98919.16;;;9.33;85.23
62333;BME280;48624;49.812;8.562;2023-04-01T04:34:09;98913.78;;;9.44;84.46
62333;BME280;48624;49.812;8.562;2023-04-01T04:36:34;98913.97;;;9.73;83.42
62333;BME280;48624;49.812;8.562;2023-04-01T04:39:00;98912.44;;;9.99;82.08
62333;BME280;48624;49.812;8.562;2023-04-01T04:41:28;98915.94;;;9.80;82.08
62333;BME280;48624;49.812;8.562;2023-04-01T04:43:55;98920.53;;;9.78;82.91
62333;BME280;48624;49.812;8.562;2023-04-01T04:46:21;98919.28;;;10.12;81.25
62333;BME280;48624;49.812;8.562;2023-04-01T04:48:46;98913.59;;;9.97;81.79
62333;BME280;48624;49.812;8.562;2023-04-01T04:51:16;98919.25;;;9.63;83.81
62333;BME280;48624;49.812;8.562;2023-04-01T04:53:42;98917.31;;;9.75;83.92
62333;BME280;48624;49.812;8.562;2023-04-01T04:56:07;98918.47;;;10.02;82.08
62333;BME280;48624;49.812;8.562;2023-04-01T04:58:32;98918.28;;;9.83;82.22
62333;BME280;48624;49.812;8.562;2023-04-01T05:00:58;98924.59;;;9.92;82.17
62333;BME280;48624;49.812;8.562;2023-04-01T05:03:24;98918.13;;;9.75;82.95
62333;BME280;48624;49.812;8.562;2023-04-01T05:05:51;98920.94;;;9.74;83.21
62333;BME280;48624;49.812;8.562;2023-04-01T05:08:18;98918.53;;;9.70;84.01
62333;BME280;48624;49.812;8.562;2023-04-01T05:10:44;98917.88;;;9.88;83.11
62333;BME280;48624;49.812;8.562;2023-04-01T05:13:11;98919.16;;;10.04;82.45
62333;BME280;48624;49.812;8.562;2023-04-01T05:15:36;98912.44;;;9.80;84.06
62333;BME280;48624;49.812;8.562;2023-04-01T05:18:02;98920.41;;;10.09;82.50
62333;BME280;48624;49.812;8.562;2023-04-01T05:20:27;98911.78;;;9.88;82.92
62333;BME280;48624;49.812;8.562;2023-04-01T05:22:57;98917.59;;;9.81;84.06
62333;BME280;48624;49.812;8.562;2023-04-01T05:25:22;98907.81;;;9.62;84.22
62333;BME280;48624;49.812;8.562;2023-04-01T05:27:47;98913.81;;;9.64;84.87
62333;BME280;48624;49.812;8.562;2023-04-01T05:30:12;98904.78;;;9.77;84.42
62333;BME280;48624;49.812;8.562;2023-04-01T05:32:38;98915.75;;;9.52;84.62
62333;BME280;48624;49.812;8.562;2023-04-01T05:35:03;98911.34;;;9.73;83.88
62333;BME280;48624;49.812;8.562;2023-04-01T05:37:29;98916.19;;;9.67;83.89
62333;BME280;48624;49.812;8.562;2023-04-01T05:39:54;98910.75;;;9.79;83.36
62333;BME280;48624;49.812;8.562;2023-04-01T05:42:20;98910.78;;;9.69;84.63
62333;BME280;48624;49.812;8.562;2023-04-01T05:44:45;98908.41;;;9.85;83.74
62333;BME280;48624;49.812;8.562;2023-04-01T05:47:10;98903.38;;;9.63;83.72
62333;BME280;48624;49.812;8.562;2023-04-01T05:49:36;98904.75;;;9.67;84.49
62333;BME280;48624;49.812;8.562;2023-04-01T05:52:01;98902.84;;;9.69;84.58
62333;BME280;48624;49.812;8.562;2023-04-01T05:54:26;98906.63;;;9.96;83.25
62333;BME280;48624;49.812;8.562;2023-04-01T05:56:51;98917.88;;;9.88;82.31
62333;BME280;48624;49.812;8.562;2023-04-01T05:59:18;98902.28;;;9.95;82.88
62333;BME280;48624;49.812;8.562;2023-04-01T06:01:43;98893.16;;;9.48;83.87
62333;BME280;48624;49.812;8.562;2023-04-01T06:04:16;98906.47;;;9.78;83.38
62333;BME280;48624;49.812;8.562;2023-04-01T06:06:42;98900.91;;;9.91;82.96
62333;BME280;48624;49.812;8.562;2023-04-01T06:09:26;98903.22;;;9.54;84.12
62333;BME280;48624;49.812;8.562;2023-04-01T06:31:03;98900.19;;;9.98;82.91
62333;BME280;48624;49.812;8.562;2023-04-01T06:33:58;98894.50;;;9.83;83.48
62333;BME280;48624;49.812;8.562;2023-04-01T06:40:02;98899.94;;;10.11;82.52
62333;BME280;48624;49.812;8.562;2023-04-01T06:42:59;98895.31;;;9.74;84.19
62333;BME280;48624;49.812;8.562;2023-04-01T06:45:32;98899.22;;;10.09;82.85
62333;BME280;48624;49.812;8.562;2023-04-01T06:48:16;98901.44;;;10.04;83.47
62333;BME280;48624;49.812;8.562;2023-04-01T06:53:57;98899.53;;;10.06;82.33
62333;BME280;48624;49.812;8.562;2023-04-01T06:56:28;98910.09;;;10.26;81.93
62333;BME280;48624;49.812;8.562;2023-04-01T06:59:10;98903.97;;;9.96;82.21
62333;BME280;48624;49.812;8.562;2023-04-01T07:01:41;98905.75;;;10.05;82.85
62333;BME280;48624;49.812;8.562;2023-04-01T07:04:30;98907.03;;;10.01;82.48
62333;BME280;48624;49.812;8.562;2023-04-01T07:06:59;98901.06;;;9.99;82.83
62333;BME280;48624;49.812;8.562;2023-04-01T07:09:34;98907.03;;;9.81;83.73
62333;BME280;48624;49.812;8.562;2023-04-01T07:12:09;98911.75;;;10.17;83.11
62333;BME280;48624;49.812;8.562;2023-04-01T07:14:39;98900.88;;;10.00;83.79
62333;BME280;48624;49.812;8.562;2023-04-01T07:17:42;98909.81;;;9.90;84.19
62333;BME280;48624;49.812;8.562;2023-04-01T07:20:23;98911.91;;;10.45;82.97
62333;BME280;48624;49.812;8.562;2023-04-01T07:22:54;98917.06;;;10.17;83.77
62333;BME280;48624;49.812;8.562;2023-04-01T07:25:25;98904.09;;;10.24;83.81
62333;BME280;48624;49.812;8.562;2023-04-01T07:27:53;98907.72;;;10.33;83.85
62333;BME280;48624;49.812;8.562;2023-04-01T07:30:23;98897.13;;;10.62;83.09
62333;BME280;48624;49.812;8.562;2023-04-01T07:34:00;98914.38;;;10.37;83.51
62333;BME280;48624;49.812;8.562;2023-04-01T07:36:08;98913.16;;;10.41;84.55
62333;BME280;48624;49.812;8.562;2023-04-01T07:47:34;98914.56;;;10.55;84.02
62333;BME280;48624;49.812;8.562;2023-04-01T07:50:24;98912.84;;;10.64;83.72
62333;BME280;48624;49.812;8.562;2023-04-01T07:53:14;98913.94;;;11.19;82.08
62333;BME280;48624;49.812;8.562;2023-04-01T08:04:12;98930.78;;;10.80;83.12
62333;BME280;48624;49.812;8.562;2023-04-01T08:06:47;98917.41;;;10.81;83.23
62333;BME280;48624;49.812;8.562;2023-04-01T08:09:34;98921.59;;;10.74;84.00
62333;BME280;48624;49.812;8.562;2023-04-01T08:20:29;98934.84;;;10.84;83.02
62333;BME280;48624;49.812;8.562;2023-04-01T08:23:03;98941.31;;;11.09;82.01
62333;BME280;48624;49.812;8.562;2023-04-01T08:25:32;98938.84;;;10.98;83.04
62333;BME280;48624;49.812;8.562;2023-04-01T08:30:43;98930.72;;;10.62;85.94
62333;BME280;48624;49.812;8.562;2023-04-01T08:33:19;98941.00;;;10.65;86.62
62333;BME280;48624;49.812;8.562;2023-04-01T08:35:58;98939.19;;;10.65;87.04
62333;BME280;48624;49.812;8.562;2023-04-01T08:38:30;98936.97;;;10.51;87.31
62333;BME280;48624;49.812;8.562;2023-04-01T08:41:11;98942.66;;;10.76;87.19
62333;BME280;48624;49.812;8.562;2023-04-01T08:43:51;98936.56;;;10.65;87.97
62333;BME280;48624;49.812;8.562;2023-04-01T08:54:55;98948.56;;;10.60;89.79
62333;BME280;48624;49.812;8.562;2023-04-01T08:57:37;98937.53;;;10.64;89.87
62333;BME280;48624;49.812;8.562;2023-04-01T09:00:32;98948.28;;;10.53;90.81
62333;BME280;48624;49.812;8.562;2023-04-01T09:11:28;98957.16;;;10.72;90.55
62333;BME280;48624;49.812;8.562;2023-04-01T09:16:51;98969.13;;;10.95;88.19
62333;BME280;48624;49.812;8.562;2023-04-01T09:19:30;98963.16;;;10.74;90.68
62333;BME280;48624;49.812;8.562;2023-04-01T09:22:02;98961.91;;;10.78;89.57
62333;BME280;48624;49.812;8.562;2023-04-01T09:31:02;98964.16;;;10.73;91.37
62333;BME280;48624;49.812;8.562;2023-04-01T09:34:03;98977.38;;;10.82;91.97
62333;BME280;48624;49.812;8.562;2023-04-01T09:36:54;98974.78;;;10.53;94.34
62333;BME280;48624;49.812;8.562;2023-04-01T09:39:37;98977.91;;;10.86;93.78
62333;BME280;48624;49.812;8.562;2023-04-01T09:42:29;98973.38;;;10.59;95.85
62333;BME280;48624;49.812;8.562;2023-04-01T09:45:01;98984.94;;;10.58;96.63
62333;BME280;48624;49.812;8.562;2023-04-01T09:50:46;98985.47;;;10.41;97.72
62333;BME280;48624;49.812;8.562;2023-04-01T09:53:28;98988.94;;;10.32;97.55
62333;BME280;48624;49.812;8.562;2023-04-01T10:01:49;99000.81;;;10.48;98.08
62333;BME280;48624;49.812;8.562;2023-04-01T10:04:23;98991.34;;;10.45;98.91
62333;BME280;48624;49.812;8.562;2023-04-01T10:12:39;99002.34;;;10.60;98.93
62333;BME280;48624;49.812;8.562;2023-04-01T10:27:39;99013.44;;;11.13;94.58
62333;BME280;48624;49.812;8.562;2023-04-01T10:30:50;99006.63;;;11.01;95.80
62333;BME280;48624;49.812;8.562;2023-04-01T10:36:47;99005.78;;;11.10;96.93
62333;BME280;48624;49.812;8.562;2023-04-01T10:42:43;99003.44;;;11.35;95.41
62333;BME280;48624;49.812;8.562;2023-04-01T10:46:06;99006.03;;;11.07;97.47
62333;BME280;48624;49.812;8.562;2023-04-01T10:52:15;99003.00;;;10.92;96.88
62333;BME280;48624;49.812;8.562;2023-04-01T11:01:11;99010.78;;;11.13;100.00
62333;BME280;48624;49.812;8.562;2023-04-01T11:07:01;99020.84;;;11.00;100.00
62333;BME280;48624;49.812;8.562;2023-04-01T11:13:00;99001.94;;;10.75;100.00
62333;BME280;48624;49.812;8.562;2023-04-01T11:15:56;99013.34;;;10.85;100.00
62333;BME280;48624;49.812;8.562;2023-04-01T11:26:44;99017.91;;;11.03;100.00
62333;BME280;48624;49.812;8.562;2023-04-01T11:29:36;99020.88;;;10.70;100.00
62333;BME280;48624;49.812;8.562;2023-04-01T11:35:30;99022.00;;;10.77;100.00
62333;BME280;48624;49.812;8.562;2023-04-01T11:43:49;99035.50;;;10.84;100.00
62333;BME280;48624;49.812;8.562;2023-04-01T11:46:33;99037.34;;;10.54;100.00
62333;BME280;48624;49.812;8.562;2023-04-01T11:52:16;99050.16;;;10.68;100.00
62333;BME280;48624;49.812;8.562;2023-04-01T12:09:51;99038.16;;;10.74;100.00
62333;BME280;48624;49.812;8.562;2023-04-01T12:12:29;99026.59;;;10.55;100.00
62333;BME280;48624;49.812;8.562;2023-04-01T12:17:36;99044.28;;;10.94;100.00
62333;BME280;48624;49.812;8.562;2023-04-01T12:23:25;99040.56;;;11.35;100.00
62333;BME280;48624;49.812;8.562;2023-04-01T12:26:04;99043.94;;;11.27;100.00
62333;BME280;48624;49.812;8.562;2023-04-01T12:28:48;99056.59;;;11.53;100.00
62333;BME280;48624;49.812;8.562;2023-04-01T12:45:33;99062.16;;;11.50;99.71
62333;BME280;48624;49.812;8.562;2023-04-01T12:51:22;99068.69;;;11.56;99.34
62333;BME280;48624;49.812;8.562;2023-04-01T13:09:35;99075.22;;;10.94;100.00
62333;BME280;48624;49.812;8.562;2023-04-01T13:12:35;99068.41;;;11.11;100.00
62333;BME280;48624;49.812;8.562;2023-04-01T13:29:19;99085.28;;;11.10;100.00
62333;BME280;48624;49.812;8.562;2023-04-01T13:32:05;99088.88;;;11.19;100.00
62333;BME280;48624;49.812;8.562;2023-04-01T13:34:38;99089.03;;;11.17;100.00
62333;BME280;48624;49.812;8.562;2023-04-01T13:37:41;99102.78;;;11.50;100.00
62333;BME280;48624;49.812;8.562;2023-04-01T13:40:33;99092.94;;;11.13;100.00
62333;BME280;48624;49.812;8.562;2023-04-01T13:43:13;99078.00;;;11.22;100.00
62333;BME280;48624;49.812;8.562;2023-04-01T13:55:03;99097.69;;;11.19;100.00
62333;BME280;48624;49.812;8.562;2023-04-01T14:03:38;99105.13;;;11.54;100.00
62333;BME280;48624;49.812;8.562;2023-04-01T14:06:15;99098.72;;;11.46;100.00
62333;BME280;48624;49.812;8.562;2023-04-01T14:14:28;99110.50;;;11.34;100.00
62333;BME280;48624;49.812;8.562;2023-04-01T14:23:36;99102.22;;;11.47;99.63
62333;BME280;48624;49.812;8.562;2023-04-01T14:29:01;99116.06;;;11.41;100.00
62333;BME280;48624;49.812;8.562;2023-04-01T14:34:30;99114.75;;;11.55;100.00
62333;BME280;48624;49.812;8.562;2023-04-01T14:40:26;99122.84;;;11.63;99.17
62333;BME280;48624;49.812;8.562;2023-04-01T14:43:28;99128.16;;;11.63;99.48
62333;BME280;48624;49.812;8.562;2023-04-01T14:46:10;99134.34;;;11.34;99.98
62333;BME280;48624;49.812;8.562;2023-04-01T14:48:51;99132.78;;;11.61;97.31
62333;BME280;48624;49.812;8.562;2023-04-01T14:51:29;99135.38;;;11.71;96.95
62333;BME280;48624;49.812;8.562;2023-04-01T15:07:19;99148.13;;;11.67;98.74
62333;BME280;48624;49.812;8.562;2023-04-01T15:09:58;99143.19;;;11.72;96.60
62333;BME280;48624;49.812;8.562;2023-04-01T15:12:54;99146.88;;;11.42;98.96
62333;BME280;48624;49.812;8.562;2023-04-01T15:18:29;99150.22;;;11.63;97.55
62333;BME280;48624;49.812;8.562;2023-04-01T15:26:20;99148.56;;;12.00;96.04
62333;BME280;48624;49.812;8.562;2023-04-01T15:31:50;99157.81;;;11.96;95.54
62333;BME280;48624;49.812;8.562;2023-04-01T15:37:12;99159.44;;;12.17;94.03
62333;BME280;48624;49.812;8.562;2023-04-01T15:45:26;99175.28;;;13.01;89.27
62333;BME280;48624;49.812;8.562;2023-04-01T15:53:42;99174.63;;;12.71;88.36
62333;BME280;48624;49.812;8.562;2023-04-01T15:56:41;99177.13;;;12.54;88.27
62333;BME280;48624;49.812;8.562;2023-04-01T16:07:54;99192.66;;;12.49;88.67
62333;BME280;48624;49.812;8.562;2023-04-01T16:13:37;99194.63;;;12.47;86.49
62333;BME280;48624;49.812;8.562;2023-04-01T16:43:16;99219.97;;;11.93;84.74
62333;BME280;48624;49.812;8.562;2023-04-01T16:52:32;99229.09;;;11.51;87.24
62333;BME280;48624;49.812;8.562;2023-04-01T17:02:17;99252.41;;;11.68;86.32
62333;BME280;48624;49.812;8.562;2023-04-01T17:16:54;99264.56;;;11.31;87.44
62333;BME280;48624;49.812;8.562;2023-04-01T17:22:44;99268.03;;;11.21;86.84
62333;BME280;48624;49.812;8.562;2023-04-01T17:25:47;99272.25;;;11.44;86.24
62333;BME280;48624;49.812;8.562;2023-04-01T17:31:43;99286.72;;;11.20;87.20
62333;BME280;48624;49.812;8.562;2023-04-01T17:34:55;99289.81;;;11.35;85.87
62333;BME280;48624;49.812;8.562;2023-04-01T17:37:37;99293.69;;;11.21;86.83
62333;BME280;48624;49.812;8.562;2023-04-01T17:46:50;99299.19;;;10.78;88.89
62333;BME280;48624;49.812;8.562;2023-04-01T18:09:19;99328.22;;;10.90;87.27
62333;BME280;48624;49.812;8.562;2023-04-01T18:20:22;99352.47;;;10.54;89.24
62333;BME280;48624;49.812;8.562;2023-04-01T18:23:04;99362.50;;;10.50;90.12
62333;BME280;48624;49.812;8.562;2023-04-01T18:25:39;99364.66;;;10.45;89.63
62333;BME280;48624;49.812;8.562;2023-04-01T18:28:22;99368.06;;;10.78;88.21
62333;BME280;48624;49.812;8.562;2023-04-01T18:31:05;99370.75;;;10.57;88.60
62333;BME280;48624;49.812;8.562;2023-04-01T18:33:49;99382.56;;;10.53;89.02
62333;BME280;48624;49.812;8.562;2023-04-01T18:39:47;99387.13;;;10.51;89.52
62333;BME280;48624;49.812;8.562;2023-04-01T18:45:23;99390.50;;;10.32;89.85
62333;BME280;48624;49.812;8.562;2023-04-01T18:48:01;99389.56;;;10.54;88.13
62333;BME280;48624;49.812;8.562;2023-04-01T18:55:59;99400.56;;;10.80;87.10
62333;BME280;48624;49.812;8.562;2023-04-01T18:58:34;99407.78;;;10.36;88.68
62333;BME280;48624;49.812;8.562;2023-04-01T19:06:32;99421.16;;;10.34;88.81
62333;BME280;48624;49.812;8.562;2023-04-01T19:09:19;99420.03;;;10.48;88.35
62333;BME280;48624;49.812;8.562;2023-04-01T19:25:15;99435.84;;;10.06;89.47
62333;BME280;48624;49.812;8.562;2023-04-01T19:27:53;99442.34;;;10.02;90.45
62333;BME280;48624;49.812;8.562;2023-04-01T19:38:40;99453.72;;;10.13;90.55
62333;BME280;48624;49.812;8.562;2023-04-01T19:41:38;99457.38;;;10.01;90.58
62333;BME280;48624;49.812;8.562;2023-04-01T19:44:34;99458.25;;;10.02;90.84
62333;BME280;48624;49.812;8.562;2023-04-01T19:47:32;99462.09;;;9.97;90.58
62333;BME280;48624;49.812;8.562;2023-04-01T19:52:55;99464.88;;;9.96;90.97
62333;BME280;48624;49.812;8.562;2023-04-01T19:58:19;99469.06;;;9.98;90.99
62333;BME280;48624;49.812;8.562;2023-04-01T20:00:53;99476.16;;;9.98;90.75
62333;BME280;48624;49.812;8.562;2023-04-01T20:09:42;99487.19;;;10.03;90.68
62333;BME280;48624;49.812;8.562;2023-04-01T20:12:30;99491.63;;;10.14;90.81
62333;BME280;48624;49.812;8.562;2023-04-01T20:15:20;99491.66;;;10.03;91.26
62333;BME280;48624;49.812;8.562;2023-04-01T20:17:47;99492.88;;;9.98;91.36
62333;BME280;48624;49.812;8.562;2023-04-01T20:20:21;99504.38;;;10.09;91.13
62333;BME280;48624;49.812;8.562;2023-04-01T20:23:01;99504.53;;;10.07;90.22
62333;BME280;48624;49.812;8.562;2023-04-01T20:25:52;99511.38;;;9.98;91.27
62333;BME280;48624;49.812;8.562;2023-04-01T20:36:49;99512.88;;;9.91;91.75
62333;BME280;48624;49.812;8.562;2023-04-01T20:42:26;99526.66;;;9.95;91.19
62333;BME280;48624;49.812;8.562;2023-04-01T20:48:09;99521.97;;;9.98;90.93
62333;BME280;48624;49.812;8.562;2023-04-01T20:56:36;99536.91;;;9.88;92.09
62333;BME280;48624;49.812;8.562;2023-04-01T20:59:28;99538.84;;;9.86;92.78
62333;BME280;48624;49.812;8.562;2023-04-01T21:02:16;99542.56;;;9.83;92.63
62333;BME280;48624;49.812;8.562;2023-04-01T21:07:54;99541.97;;;9.91;91.91
62333;BME280;48624;49.812;8.562;2023-04-01T21:10:37;99543.00;;;10.11;90.71
62333;BME280;48624;49.812;8.562;2023-04-01T21:13:17;99547.19;;;10.25;89.42
62333;BME280;48624;49.812;8.562;2023-04-01T21:18:49;99557.97;;;9.78;93.12
62333;BME280;48624;49.812;8.562;2023-04-01T21:30:17;99561.09;;;9.61;94.68
62333;BME280;48624;49.812;8.562;2023-04-01T21:35:26;99575.03;;;9.85;93.52
62333;BME280;48624;49.812;8.562;2023-04-01T21:38:23;99579.09;;;9.67;94.47
62333;BME280;48624;49.812;8.562;2023-04-01T21:49:24;99599.22;;;9.92;93.63
62333;BME280;48624;49.812;8.562;2023-04-01T21:52:10;99596.91;;;9.76;94.08
62333;BME280;48624;49.812;8.562;2023-04-01T21:55:05;99605.09;;;9.62;94.51
62333;BME280;48624;49.812;8.562;2023-04-01T22:00:48;99608.34;;;9.54;94.92
62333;BME280;48624;49.812;8.562;2023-04-01T22:05:56;99613.03;;;9.50;94.72
62333;BME280;48624;49.812;8.562;2023-04-01T22:11:15;99621.56;;;9.54;94.17
62333;BME280;48624;49.812;8.562;2023-04-01T22:14:01;99627.31;;;9.48;94.86
62333;BME280;48624;49.812;8.562;2023-04-01T22:19:15;99631.06;;;9.68;94.49
62333;BME280;48624;49.812;8.562;2023-04-01T22:25:03;99639.47;;;9.62;94.37
62333;BME280;48624;49.812;8.562;2023-04-01T22:30:04;99634.44;;;9.81;94.04
62333;BME280;48624;49.812;8.562;2023-04-01T22:32:44;99640.09;;;9.77;93.33